createdAt,value
2023-01-04T00:00:31.283Z,10.60
2023-01-04T00:05:33.587Z,10.65
2023-01-04T00:10:35.343Z,7.55
2023-01-04T00:15:36.860Z,12.48
2023-01-04T00:20:38.255Z,10.48
2023-01-04T00:25:39.705Z,8.43
2023-01-04T00:30:41.196Z,11.18
2023-01-04T00:35:46.387Z,13.05
2023-01-04T00:40:47.998Z,12.95
2023-01-04T00:45:49.634Z,12.15
2023-01-04T00:50:51.212Z,14.05
2023-01-04T00:55:52.563Z,12.73
2023-01-04T01:00:54.233Z,10.98
2023-01-04T01:05:55.570Z,13.02
2023-01-04T01:11:06.460Z,12.13
2023-01-04T01:16:10.992Z,11.73
2023-01-04T01:21:15.170Z,12.60
2023-01-04T01:26:19.311Z,14.18
2023-01-04T01:31:23.702Z,15.73
2023-01-04T01:36:26.293Z,12.85
2023-01-04T01:41:30.930Z,13.35
2023-01-04T01:46:40.249Z,12.88
2023-01-04T01:51:42.720Z,13.15
2023-01-04T01:56:49.329Z,14.73
2023-01-04T02:01:50.840Z,14.43
2023-01-04T02:06:55.618Z,13.25
2023-01-04T02:11:56.969Z,17.08
2023-01-04T02:17:25.739Z,15.60
2023-01-04T02:22:54.118Z,17.20
2023-01-04T02:28:00.119Z,15.48
2023-01-04T02:33:10.558Z,18.52
2023-01-04T02:38:23.894Z,14.32
2023-01-04T02:43:57.656Z,10.68
2023-01-04T02:49:21.244Z,13.00
2023-01-04T02:54:30.280Z,14.57
2023-01-04T02:59:37.541Z,11.30
2023-01-04T03:05:13.311Z,13.15
2023-01-04T03:10:35.834Z,10.75
2023-01-04T03:15:40.979Z,9.50
2023-01-04T03:20:46.049Z,10.65
2023-01-04T03:26:13.125Z,13.80
2023-01-04T03:31:43.444Z,12.05
2023-01-04T03:36:58.629Z,15.18
2023-01-04T03:42:24.539Z,11.18
2023-01-04T03:48:04.444Z,13.15
2023-01-04T03:53:07.862Z,14.50
2023-01-04T03:58:09.566Z,15.50
2023-01-04T04:03:11.019Z,11.90
2023-01-04T04:08:30.703Z,16.92
2023-01-04T04:13:32.019Z,15.25
2023-01-04T04:18:33.369Z,18.33
2023-01-04T04:23:34.729Z,18.55
2023-01-04T04:28:36.186Z,15.50
2023-01-04T04:33:37.636Z,16.30
2023-01-04T04:38:38.979Z,20.67
2023-01-04T04:43:40.363Z,21.00
2023-01-04T04:48:41.724Z,15.57
2023-01-04T04:53:43.272Z,17.20
2023-01-04T04:58:44.615Z,14.52
2023-01-04T05:03:46.369Z,18.45
2023-01-04T05:08:47.841Z,11.88
2023-01-04T05:13:49.173Z,12.48
2023-01-04T05:18:50.510Z,13.90
2023-01-04T05:23:51.872Z,13.82
2023-01-04T05:28:54.111Z,12.65
2023-01-04T05:33:55.695Z,11.55
2023-01-04T05:38:57.059Z,13.35
2023-01-04T05:43:58.430Z,13.30
2023-01-04T05:48:59.835Z,16.45
2023-01-04T05:54:01.159Z,13.45
2023-01-04T05:59:02.504Z,13.90
2023-01-04T06:04:03.931Z,13.38
2023-01-04T06:09:05.310Z,13.20
2023-01-04T06:14:06.771Z,12.60
2023-01-04T06:19:08.144Z,13.10
2023-01-04T06:24:11.357Z,16.10
2023-01-04T06:29:13.178Z,13.07
2023-01-04T06:34:15.046Z,11.95
2023-01-04T06:39:16.374Z,13.25
2023-01-04T06:44:17.672Z,15.13
2023-01-04T06:49:19.001Z,12.80
2023-01-04T06:54:20.342Z,13.68
2023-01-04T06:59:21.681Z,14.95
2023-01-04T07:04:23.160Z,13.48
2023-01-04T07:09:24.563Z,16.20
2023-01-04T07:14:25.917Z,16.70
2023-01-04T07:19:27.285Z,17.45
2023-01-04T07:24:30.663Z,15.95
2023-01-04T07:29:32.400Z,14.75
2023-01-04T07:34:33.751Z,15.65
2023-01-04T07:39:35.468Z,16.77
2023-01-04T07:44:36.963Z,20.52
2023-01-04T07:49:38.315Z,15.15
2023-01-04T07:54:39.712Z,12.95
2023-01-04T07:59:41.154Z,12.77
2023-01-04T08:04:42.691Z,14.60
2023-01-04T08:09:44.123Z,12.82
2023-01-04T08:14:45.463Z,14.10
2023-01-04T08:19:46.895Z,12.55
2023-01-04T08:24:48.304Z,15.55
2023-01-04T08:29:49.663Z,8.77
2023-01-04T08:34:51.093Z,8.75
2023-01-04T08:39:52.397Z,10.05
2023-01-04T08:44:58.934Z,8.45
2023-01-04T08:50:06.560Z,7.07
2023-01-04T08:55:13.893Z,8.07
2023-01-04T09:00:18.051Z,7.80
2023-01-04T09:05:22.964Z,7.25
2023-01-04T09:10:24.718Z,8.23
2023-01-04T09:15:26.065Z,5.68
2023-01-04T09:20:27.638Z,7.30
2023-01-04T09:25:28.965Z,6.93
2023-01-04T09:30:31.679Z,7.32
2023-01-04T09:35:33.518Z,6.18
2023-01-04T09:40:50.919Z,8.57
2023-01-04T09:45:57.271Z,6.55
2023-01-04T09:51:04.470Z,6.07
2023-01-04T09:56:13.351Z,6.90
2023-01-04T10:01:20.589Z,5.53
2023-01-04T10:06:22.052Z,5.63
2023-01-04T10:11:48.327Z,6.13
2023-01-04T10:17:14.950Z,6.32
2023-01-04T10:22:45.245Z,3.55
2023-01-04T10:28:11.926Z,5.00
2023-01-04T10:33:38.741Z,2.80
2023-01-04T10:38:40.883Z,2.38
2023-01-04T10:44:11.369Z,5.93
2023-01-04T10:49:27.593Z,3.88
2023-01-04T10:54:38.378Z,4.25
2023-01-04T11:00:07.023Z,2.28
2023-01-04T11:05:37.681Z,5.78
2023-01-04T11:10:50.707Z,1.90
2023-01-04T11:15:52.792Z,3.90
2023-01-04T11:20:54.997Z,3.45
2023-01-04T11:25:59.268Z,3.45
2023-01-04T11:31:10.377Z,2.33
2023-01-04T11:36:31.607Z,2.10
2023-01-04T11:41:33.331Z,2.08
2023-01-04T11:46:35.106Z,4.10
2023-01-04T11:51:39.504Z,1.27
2023-01-04T11:57:05.813Z,2.88
2023-01-04T12:07:46.082Z,4.97
2023-01-04T12:12:48.103Z,3.72
2023-01-04T12:17:55.363Z,2.25
2023-01-04T12:22:56.756Z,1.95
2023-01-04T12:27:58.515Z,3.53
2023-01-04T12:33:00.153Z,2.25
2023-01-04T12:38:02.401Z,2.90
2023-01-04T12:43:27.892Z,3.10
2023-01-04T12:48:53.714Z,1.83
2023-01-04T12:54:38.815Z,1.40
2023-01-04T13:00:01.664Z,1.90
2023-01-04T13:06:02.116Z,2.70
2023-01-04T13:11:15.665Z,1.65
2023-01-04T13:16:58.668Z,1.05
2023-01-04T13:22:01.098Z,6.25
2023-01-04T13:27:18.495Z,1.92
2023-01-04T13:33:24.831Z,4.68
2023-01-04T13:38:17.999Z,3.15
2023-01-04T13:44:08.034Z,1.23
2023-01-04T13:49:15.256Z,3.13
2023-01-04T13:54:28.909Z,5.38
2023-01-04T13:59:37.986Z,4.10
2023-01-04T14:04:43.163Z,2.65
2023-01-04T14:09:51.436Z,3.05
2023-01-04T14:14:58.101Z,3.67
2023-01-04T14:20:15.640Z,7.40
2023-01-04T14:25:38.547Z,70.20
2023-01-04T14:30:40.307Z,3.58
2023-01-04T14:35:46.717Z,2.95
2023-01-04T14:40:51.020Z,1.20
2023-01-04T14:45:52.640Z,1.42
2023-01-04T14:50:56.904Z,0.82
2023-01-04T14:55:58.694Z,2.38
2023-01-04T15:01:02.617Z,1.80
2023-01-04T15:06:05.943Z,1.30
2023-01-04T15:11:10.000Z,0.60
2023-01-04T15:16:14.592Z,2.25
2023-01-04T15:21:16.713Z,0.40
2023-01-04T15:26:22.947Z,1.30
2023-01-04T15:31:30.210Z,0.70
2023-01-04T15:36:41.635Z,2.15
2023-01-04T15:42:02.251Z,1.20
2023-01-04T15:47:04.008Z,1.58
2023-01-04T15:52:06.121Z,1.42
2023-01-04T15:57:08.027Z,1.15
2023-01-04T16:02:11.649Z,0.60
2023-01-04T16:07:13.257Z,0.50
2023-01-04T16:12:33.371Z,1.15
2023-01-04T16:17:34.983Z,1.17
2023-01-04T16:22:36.746Z,2.88
2023-01-04T16:27:41.757Z,0.52
2023-01-04T16:32:43.998Z,1.27
2023-01-04T16:37:46.960Z,0.82
2023-01-04T16:42:51.281Z,0.85
2023-01-04T16:47:53.762Z,0.60
2023-01-04T16:52:55.253Z,2.38
2023-01-04T16:57:57.257Z,0.50
2023-01-04T17:02:58.938Z,1.70
2023-01-04T17:08:00.423Z,0.88
2023-01-04T17:13:01.984Z,0.47
2023-01-04T17:18:03.668Z,3.40
2023-01-04T17:23:05.446Z,1.65
2023-01-04T17:28:06.959Z,0.70
2023-01-04T17:33:08.555Z,0.50
2023-01-04T17:38:10.047Z,1.38
2023-01-04T17:43:11.727Z,1.00
2023-01-04T17:48:13.349Z,3.65
2023-01-04T17:53:14.878Z,2.55
2023-01-04T17:58:19.935Z,1.48
2023-01-04T18:03:25.228Z,1.05
2023-01-04T18:08:26.803Z,1.20
2023-01-04T18:13:28.281Z,1.48
2023-01-04T18:18:30.036Z,2.80
2023-01-04T18:23:31.441Z,0.73
2023-01-04T18:28:34.440Z,2.08
2023-01-04T18:33:35.899Z,0.65
2023-01-04T18:38:38.188Z,0.40
2023-01-04T18:43:45.667Z,0.57
2023-01-04T18:48:59.933Z,0.88
2023-01-04T18:54:01.386Z,1.70
2023-01-04T18:59:02.802Z,0.88
2023-01-04T19:04:04.701Z,2.15
2023-01-04T19:09:06.964Z,1.35
2023-01-04T19:14:08.777Z,0.98
2023-01-04T19:19:10.579Z,1.08
2023-01-04T19:24:12.355Z,2.83
2023-01-04T19:29:13.737Z,0.82
2023-01-04T19:34:15.196Z,2.47
2023-01-04T19:39:16.639Z,2.03
2023-01-04T19:44:18.035Z,1.92
2023-01-04T19:49:19.405Z,1.13
2023-01-04T19:54:25.568Z,0.88
2023-01-04T19:59:27.302Z,1.23
2023-01-04T20:04:29.660Z,0.82
2023-01-04T20:09:34.507Z,2.45
2023-01-04T20:14:36.452Z,0.40
2023-01-04T20:19:38.300Z,1.05
2023-01-04T20:24:40.171Z,1.67
2023-01-04T20:29:41.964Z,1.88
2023-01-04T20:34:43.759Z,3.92
2023-01-04T20:39:45.721Z,1.60
2023-01-04T20:44:47.488Z,2.67
2023-01-04T20:49:49.386Z,2.00
2023-01-04T20:54:51.197Z,0.80
2023-01-04T20:59:52.746Z,0.93
2023-01-04T21:04:54.528Z,1.20
2023-01-04T21:09:56.114Z,1.15
2023-01-04T21:14:59.905Z,5.13
2023-01-04T21:20:01.599Z,1.40
2023-01-04T21:25:03.345Z,1.05
2023-01-04T21:30:05.713Z,1.17
2023-01-04T21:35:08.035Z,0.70
2023-01-04T21:40:10.396Z,0.40
2023-01-04T21:45:11.948Z,1.75
2023-01-04T21:50:17.179Z,0.70
2023-01-04T21:55:29.406Z,0.60
2023-01-04T22:00:35.694Z,0.50
2023-01-04T22:05:43.408Z,1.35
2023-01-04T22:10:55.409Z,1.15
2023-01-04T22:15:57.153Z,0.70
2023-01-04T22:21:07.422Z,0.50
2023-01-04T22:26:09.065Z,0.47
2023-01-04T22:31:13.231Z,0.38
2023-01-04T22:36:22.269Z,1.10
2023-01-04T22:41:27.438Z,1.05
2023-01-04T22:46:31.039Z,0.55
2023-01-04T22:51:32.586Z,0.63
2023-01-04T22:56:33.996Z,0.80
2023-01-04T23:01:35.457Z,0.73
2023-01-04T23:06:36.835Z,0.70
2023-01-04T23:11:38.353Z,1.45
2023-01-04T23:16:40.018Z,0.80
2023-01-04T23:21:42.141Z,0.90
2023-01-04T23:26:43.938Z,1.75
2023-01-04T23:31:45.367Z,0.90
2023-01-04T23:36:46.799Z,1.08
2023-01-04T23:41:48.294Z,3.92
2023-01-04T23:47:01.081Z,2.97
2023-01-04T23:52:04.086Z,2.67
2023-01-04T23:57:05.551Z,4.72
